sensor_id;sensor_type;location;lat;lon;timestamp;P1;durP1;ratioP1;P2;durP2;ratioP2
505;SDS011;551;48.524;9.056;2023-05-07T00:01:08;4.80;;;3.20;;
505;SDS011;551;48.524;9.056;2023-05-07T00:03:33;6.13;;;3.30;;
505;SDS011;551;48.524;9.056;2023-05-07T00:05:59;3.93;;;3.43;;
505;SDS011;551;48.524;9.056;2023-05-07T00:08:24;3.57;;;3.27;;
505;SDS011;551;48.524;9.056;2023-05-07T00:10:50;4.30;;;3.90;;
505;SDS011;551;48.524;9.056;2023-05-07T00:13:15;3.47;;;3.17;;
505;SDS011;551;48.524;9.056;2023-05-07T00:15:41;7.30;;;2.97;;
505;SDS011;551;48.524;9.056;2023-05-07T00:18:06;4.77;;;3.63;;
505;SDS011;551;48.524;9.056;2023-05-07T00:20:32;4.20;;;3.43;;
505;SDS011;551;48.524;9.056;2023-05-07T00:22:57;4.60;;;3.60;;
505;SDS011;551;48.524;9.056;2023-05-07T00:25:23;4.33;;;3.73;;
505;SDS011;551;48.524;9.056;2023-05-07T00:27:49;8.90;;;3.40;;
505;SDS011;551;48.524;9.056;2023-05-07T00:30:14;4.73;;;3.50;;
505;SDS011;551;48.524;9.056;2023-05-07T00:32:40;5.93;;;3.77;;
505;SDS011;551;48.524;9.056;2023-05-07T00:35:05;5.00;;;3.90;;
505;SDS011;551;48.524;9.056;2023-05-07T00:37:32;3.70;;;3.37;;
505;SDS011;551;48.524;9.056;2023-05-07T00:39:57;3.30;;;3.07;;
505;SDS011;551;48.524;9.056;2023-05-07T00:42:23;3.57;;;3.27;;
505;SDS011;551;48.524;9.056;2023-05-07T00:44:49;6.17;;;3.60;;
505;SDS011;551;48.524;9.056;2023-05-07T00:47:15;4.90;;;3.70;;
505;SDS011;551;48.524;9.056;2023-05-07T00:49:42;3.73;;;3.20;;
505;SDS011;551;48.524;9.056;2023-05-07T00:52:09;3.93;;;3.57;;
505;SDS011;551;48.524;9.056;2023-05-07T00:54:38;3.57;;;3.27;;
505;SDS011;551;48.524;9.056;2023-05-07T00:57:05;4.70;;;3.77;;
505;SDS011;551;48.524;9.056;2023-05-07T00:59:31;4.37;;;4.07;;
505;SDS011;551;48.524;9.056;2023-05-07T01:01:58;4.53;;;3.90;;
505;SDS011;551;48.524;9.056;2023-05-07T01:04:24;4.83;;;3.50;;
505;SDS011;551;48.524;9.056;2023-05-07T01:06:51;4.30;;;3.57;;
505;SDS011;551;48.524;9.056;2023-05-07T01:09:19;3.77;;;3.47;;
505;SDS011;551;48.524;9.056;2023-05-07T01:11:45;4.73;;;3.60;;
505;SDS011;551;48.524;9.056;2023-05-07T01:14:12;4.20;;;3.80;;
505;SDS011;551;48.524;9.056;2023-05-07T01:16:38;3.97;;;3.67;;
505;SDS011;551;48.524;9.056;2023-05-07T01:19:06;8.70;;;4.37;;
505;SDS011;551;48.524;9.056;2023-05-07T01:21:33;6.30;;;4.30;;
505;SDS011;551;48.524;9.056;2023-05-07T01:24:00;5.63;;;4.30;;
505;SDS011;551;48.524;9.056;2023-05-07T01:26:26;7.07;;;4.23;;
505;SDS011;551;48.524;9.056;2023-05-07T01:28:51;5.43;;;4.97;;
505;SDS011;551;48.524;9.056;2023-05-07T01:31:16;3.90;;;3.60;;
505;SDS011;551;48.524;9.056;2023-05-07T01:33:43;3.90;;;3.60;;
505;SDS011;551;48.524;9.056;2023-05-07T01:36:10;7.57;;;3.70;;
505;SDS011;551;48.524;9.056;2023-05-07T01:38:37;3.53;;;3.23;;
505;SDS011;551;48.524;9.056;2023-05-07T01:41:03;5.43;;;4.63;;
505;SDS011;551;48.524;9.056;2023-05-07T01:43:29;6.37;;;4.10;;
505;SDS011;551;48.524;9.056;2023-05-07T01:45:55;4.10;;;3.70;;
505;SDS011;551;48.524;9.056;2023-05-07T01:48:22;6.90;;;3.67;;
505;SDS011;551;48.524;9.056;2023-05-07T01:50:49;8.37;;;4.10;;
505;SDS011;551;48.524;9.056;2023-05-07T01:53:15;4.03;;;3.63;;
505;SDS011;551;48.524;9.056;2023-05-07T01:55:40;5.13;;;3.73;;
505;SDS011;551;48.524;9.056;2023-05-07T01:58:06;4.57;;;3.80;;
505;SDS011;551;48.524;9.056;2023-05-07T02:00:31;4.60;;;4.20;;
505;SDS011;551;48.524;9.056;2023-05-07T02:02:57;7.63;;;3.70;;
505;SDS011;551;48.524;9.056;2023-05-07T02:05:23;5.10;;;3.77;;
505;SDS011;551;48.524;9.056;2023-05-07T02:07:49;7.50;;;3.90;;
505;SDS011;551;48.524;9.056;2023-05-07T02:10:14;4.30;;;3.60;;
505;SDS011;551;48.524;9.056;2023-05-07T02:12:40;6.00;;;4.40;;
505;SDS011;551;48.524;9.056;2023-05-07T02:15:05;4.80;;;4.30;;
505;SDS011;551;48.524;9.056;2023-05-07T02:17:31;6.10;;;3.87;;
505;SDS011;551;48.524;9.056;2023-05-07T02:19:57;5.00;;;3.87;;
505;SDS011;551;48.524;9.056;2023-05-07T02:22:23;4.37;;;4.00;;
505;SDS011;551;48.524;9.056;2023-05-07T02:24:49;4.70;;;4.20;;
505;SDS011;551;48.524;9.056;2023-05-07T02:27:14;3.87;;;3.57;;
505;SDS011;551;48.524;9.056;2023-05-07T02:29:40;4.57;;;4.17;;
505;SDS011;551;48.524;9.056;2023-05-07T02:32:05;5.47;;;3.90;;
505;SDS011;551;48.524;9.056;2023-05-07T02:34:31;6.90;;;3.93;;
505;SDS011;551;48.524;9.056;2023-05-07T02:36:56;4.80;;;4.30;;
505;SDS011;551;48.524;9.056;2023-05-07T02:39:22;6.07;;;4.77;;
505;SDS011;551;48.524;9.056;2023-05-07T02:41:47;5.83;;;3.70;;
505;SDS011;551;48.524;9.056;2023-05-07T02:44:13;4.47;;;4.07;;
505;SDS011;551;48.524;9.056;2023-05-07T02:46:38;7.13;;;4.77;;
505;SDS011;551;48.524;9.056;2023-05-07T02:49:04;4.20;;;3.73;;
505;SDS011;551;48.524;9.056;2023-05-07T02:51:30;4.37;;;4.00;;
505;SDS011;551;48.524;9.056;2023-05-07T02:53:56;4.40;;;4.00;;
505;SDS011;551;48.524;9.056;2023-05-07T02:56:21;5.70;;;4.43;;
505;SDS011;551;48.524;9.056;2023-05-07T02:58:47;4.43;;;3.73;;
505;SDS011;551;48.524;9.056;2023-05-07T03:01:12;4.97;;;4.40;;
505;SDS011;551;48.524;9.056;2023-05-07T03:03:39;4.47;;;3.80;;
505;SDS011;551;48.524;9.056;2023-05-07T03:06:04;5.53;;;3.70;;
505;SDS011;551;48.524;9.056;2023-05-07T03:08:31;9.60;;;4.60;;
505;SDS011;551;48.524;9.056;2023-05-07T03:10:57;5.10;;;3.60;;
505;SDS011;551;48.524;9.056;2023-05-07T03:13:22;6.03;;;4.43;;
505;SDS011;551;48.524;9.056;2023-05-07T03:15:48;7.60;;;4.73;;
505;SDS011;551;48.524;9.056;2023-05-07T03:18:14;6.37;;;4.53;;
505;SDS011;551;48.524;9.056;2023-05-07T03:20:39;7.03;;;4.60;;
505;SDS011;551;48.524;9.056;2023-05-07T03:23:05;6.07;;;5.00;;
505;SDS011;551;48.524;9.056;2023-05-07T03:25:31;4.97;;;4.13;;
505;SDS011;551;48.524;9.056;2023-05-07T03:27:56;4.60;;;4.20;;
505;SDS011;551;48.524;9.056;2023-05-07T03:30:22;5.80;;;4.60;;
505;SDS011;551;48.524;9.056;2023-05-07T03:32:48;5.43;;;4.93;;
505;SDS011;551;48.524;9.056;2023-05-07T03:35:13;6.03;;;4.97;;
505;SDS011;551;48.524;9.056;2023-05-07T03:37:39;5.70;;;4.13;;
505;SDS011;551;48.524;9.056;2023-05-07T03:40:05;6.80;;;4.50;;
505;SDS011;551;48.524;9.056;2023-05-07T03:42:31;7.60;;;4.43;;
505;SDS011;551;48.524;9.056;2023-05-07T03:44:57;9.30;;;5.97;;
505;SDS011;551;48.524;9.056;2023-05-07T03:47:22;6.33;;;4.70;;
505;SDS011;551;48.524;9.056;2023-05-07T03:49:48;5.60;;;5.10;;
505;SDS011;551;48.524;9.056;2023-05-07T03:52:14;5.20;;;4.70;;
505;SDS011;551;48.524;9.056;2023-05-07T03:54:39;5.73;;;5.00;;
505;SDS011;551;48.524;9.056;2023-05-07T03:57:05;6.33;;;5.33;;
505;SDS011;551;48.524;9.056;2023-05-07T03:59:30;6.00;;;5.30;;
505;SDS011;551;48.524;9.056;2023-05-07T04:01:56;5.73;;;4.80;;
505;SDS011;551;48.524;9.056;2023-05-07T04:04:22;7.53;;;4.37;;
505;SDS011;551;48.524;9.056;2023-05-07T04:06:47;8.30;;;4.90;;
505;SDS011;551;48.524;9.056;2023-05-07T04:09:13;5.23;;;4.73;;
505;SDS011;551;48.524;9.056;2023-05-07T04:11:39;6.37;;;5.33;;
505;SDS011;551;48.524;9.056;2023-05-07T04:14:05;10.13;;;5.47;;
505;SDS011;551;48.524;9.056;2023-05-07T04:16:31;7.90;;;4.10;;
505;SDS011;551;48.524;9.056;2023-05-07T04:18:56;5.37;;;4.80;;
505;SDS011;551;48.524;9.056;2023-05-07T04:21:22;5.30;;;4.80;;
505;SDS011;551;48.524;9.056;2023-05-07T04:23:47;4.87;;;4.40;;
505;SDS011;551;48.524;9.056;2023-05-07T04:26:13;4.67;;;4.20;;
505;SDS011;551;48.524;9.056;2023-05-07T04:28:40;5.23;;;4.53;;
505;SDS011;551;48.524;9.056;2023-05-07T04:31:05;11.63;;;5.10;;
505;SDS011;551;48.524;9.056;2023-05-07T04:33:32;9.20;;;5.10;;
505;SDS011;551;48.524;9.056;2023-05-07T04:35:58;6.20;;;4.80;;
505;SDS011;551;48.524;9.056;2023-05-07T04:38:28;7.77;;;5.60;;
505;SDS011;551;48.524;9.056;2023-05-07T04:40:56;6.30;;;5.30;;
505;SDS011;551;48.524;9.056;2023-05-07T04:43:27;7.43;;;4.13;;
505;SDS011;551;48.524;9.056;2023-05-07T04:45:52;5.10;;;4.60;;
505;SDS011;551;48.524;9.056;2023-05-07T04:48:18;8.43;;;5.37;;
505;SDS011;551;48.524;9.056;2023-05-07T04:50:48;6.00;;;4.33;;
505;SDS011;551;48.524;9.056;2023-05-07T04:53:14;8.83;;;4.70;;
505;SDS011;551;48.524;9.056;2023-05-07T04:55:40;8.90;;;4.30;;
505;SDS011;551;48.524;9.056;2023-05-07T04:58:05;3.80;;;3.50;;
505;SDS011;551;48.524;9.056;2023-05-07T05:00:31;5.37;;;4.87;;
505;SDS011;551;48.524;9.056;2023-05-07T05:02:56;3.87;;;3.57;;
505;SDS011;551;48.524;9.056;2023-05-07T05:05:22;4.63;;;3.53;;
505;SDS011;551;48.524;9.056;2023-05-07T05:07:47;4.23;;;3.20;;
505;SDS011;551;48.524;9.056;2023-05-07T05:10:13;3.80;;;3.50;;
505;SDS011;551;48.524;9.056;2023-05-07T05:12:38;5.77;;;4.27;;
505;SDS011;551;48.524;9.056;2023-05-07T05:15:04;4.00;;;3.60;;
505;SDS011;551;48.524;9.056;2023-05-07T05:17:30;4.30;;;3.93;;
505;SDS011;551;48.524;9.056;2023-05-07T05:19:56;3.90;;;3.60;;
505;SDS011;551;48.524;9.056;2023-05-07T05:22:21;4.83;;;3.50;;
505;SDS011;551;48.524;9.056;2023-05-07T05:24:48;4.80;;;3.60;;
505;SDS011;551;48.524;9.056;2023-05-07T05:27:14;4.00;;;3.70;;
505;SDS011;551;48.524;9.056;2023-05-07T05:29:39;5.10;;;3.33;;
505;SDS011;551;48.524;9.056;2023-05-07T05:32:05;3.90;;;3.60;;
505;SDS011;551;48.524;9.056;2023-05-07T05:34:30;3.40;;;3.10;;
505;SDS011;551;48.524;9.056;2023-05-07T05:36:58;3.80;;;3.50;;
505;SDS011;551;48.524;9.056;2023-05-07T05:39:24;4.27;;;3.50;;
505;SDS011;551;48.524;9.056;2023-05-07T05:41:49;4.87;;;3.77;;
505;SDS011;551;48.524;9.056;2023-05-07T05:44:15;4.23;;;3.93;;
505;SDS011;551;48.524;9.056;2023-05-07T05:46:40;5.30;;;3.80;;
505;SDS011;551;48.524;9.056;2023-05-07T05:49:06;3.47;;;2.97;;
505;SDS011;551;48.524;9.056;2023-05-07T05:51:31;4.10;;;3.90;;
505;SDS011;551;48.524;9.056;2023-05-07T05:53:57;4.07;;;3.70;;
505;SDS011;551;48.524;9.056;2023-05-07T05:56:22;4.53;;;3.80;;
505;SDS011;551;48.524;9.056;2023-05-07T05:58:48;4.13;;;3.50;;
505;SDS011;551;48.524;9.056;2023-05-07T06:01:14;4.13;;;3.73;;
505;SDS011;551;48.524;9.056;2023-05-07T06:03:39;4.37;;;3.93;;
505;SDS011;551;48.524;9.056;2023-05-07T06:06:05;7.50;;;3.40;;
505;SDS011;551;48.524;9.056;2023-05-07T06:08:30;3.87;;;3.57;;
505;SDS011;551;48.524;9.056;2023-05-07T06:10:56;4.43;;;4.03;;
505;SDS011;551;48.524;9.056;2023-05-07T06:13:22;4.60;;;4.03;;
505;SDS011;551;48.524;9.056;2023-05-07T06:15:48;4.33;;;3.53;;
505;SDS011;551;48.524;9.056;2023-05-07T06:18:14;4.90;;;4.30;;
505;SDS011;551;48.524;9.056;2023-05-07T06:20:39;5.23;;;3.97;;
505;SDS011;551;48.524;9.056;2023-05-07T06:23:05;5.33;;;3.77;;
505;SDS011;551;48.524;9.056;2023-05-07T06:25:31;4.33;;;4.00;;
505;SDS011;551;48.524;9.056;2023-05-07T06:27:56;3.70;;;3.40;;
505;SDS011;551;48.524;9.056;2023-05-07T06:30:21;4.17;;;3.87;;
505;SDS011;551;48.524;9.056;2023-05-07T06:32:47;4.23;;;3.83;;
505;SDS011;551;48.524;9.056;2023-05-07T06:35:13;4.53;;;3.80;;
505;SDS011;551;48.524;9.056;2023-05-07T06:37:38;4.30;;;4.00;;
505;SDS011;551;48.524;9.056;2023-05-07T06:40:05;4.00;;;3.73;;
505;SDS011;551;48.524;9.056;2023-05-07T06:42:32;3.80;;;3.50;;
505;SDS011;551;48.524;9.056;2023-05-07T06:44:57;4.37;;;3.70;;
505;SDS011;551;48.524;9.056;2023-05-07T06:47:23;4.07;;;3.67;;
505;SDS011;551;48.524;9.056;2023-05-07T06:49:51;4.00;;;3.60;;
505;SDS011;551;48.524;9.056;2023-05-07T06:52:16;6.07;;;3.50;;
505;SDS011;551;48.524;9.056;2023-05-07T06:54:42;4.40;;;3.97;;
505;SDS011;551;48.524;9.056;2023-05-07T06:57:07;4.07;;;3.63;;
505;SDS011;551;48.524;9.056;2023-05-07T06:59:33;6.27;;;3.97;;
505;SDS011;551;48.524;9.056;2023-05-07T07:01:58;3.57;;;3.23;;
505;SDS011;551;48.524;9.056;2023-05-07T07:04:24;4.00;;;3.67;;
505;SDS011;551;48.524;9.056;2023-05-07T07:06:51;4.37;;;3.97;;
505;SDS011;551;48.524;9.056;2023-05-07T07:09:17;5.73;;;3.73;;
505;SDS011;551;48.524;9.056;2023-05-07T07:11:43;3.33;;;3.13;;
505;SDS011;551;48.524;9.056;2023-05-07T07:14:08;4.70;;;4.30;;
505;SDS011;551;48.524;9.056;2023-05-07T07:16:34;4.97;;;3.30;;
505;SDS011;551;48.524;9.056;2023-05-07T07:19:00;7.00;;;4.00;;
505;SDS011;551;48.524;9.056;2023-05-07T07:21:25;4.43;;;4.13;;
505;SDS011;551;48.524;9.056;2023-05-07T07:23:51;3.90;;;3.60;;
505;SDS011;551;48.524;9.056;2023-05-07T07:26:17;7.63;;;3.73;;
505;SDS011;551;48.524;9.056;2023-05-07T07:28:43;4.13;;;3.60;;
505;SDS011;551;48.524;9.056;2023-05-07T07:31:09;4.23;;;3.93;;
505;SDS011;551;48.524;9.056;2023-05-07T07:33:34;3.90;;;3.50;;
505;SDS011;551;48.524;9.056;2023-05-07T07:36:00;5.20;;;4.70;;
505;SDS011;551;48.524;9.056;2023-05-07T07:38:25;4.90;;;3.60;;
505;SDS011;551;48.524;9.056;2023-05-07T07:40:51;6.30;;;4.50;;
505;SDS011;551;48.524;9.056;2023-05-07T07:43:17;4.57;;;4.03;;
505;SDS011;551;48.524;9.056;2023-05-07T07:45:42;4.87;;;4.30;;
505;SDS011;551;48.524;9.056;2023-05-07T07:48:08;4.53;;;3.70;;
505;SDS011;551;48.524;9.056;2023-05-07T07:50:33;5.00;;;4.47;;
505;SDS011;551;48.524;9.056;2023-05-07T07:52:59;8.17;;;3.80;;
505;SDS011;551;48.524;9.056;2023-05-07T07:55:25;4.37;;;3.97;;
505;SDS011;551;48.524;9.056;2023-05-07T07:57:51;4.53;;;3.93;;
505;SDS011;551;48.524;9.056;2023-05-07T08:00:17;4.00;;;3.70;;
505;SDS011;551;48.524;9.056;2023-05-07T08:02:43;6.60;;;3.77;;
505;SDS011;551;48.524;9.056;2023-05-07T08:05:08;3.87;;;3.57;;
505;SDS011;551;48.524;9.056;2023-05-07T08:07:35;8.30;;;3.60;;
505;SDS011;551;48.524;9.056;2023-05-07T08:10:01;4.00;;;3.70;;
505;SDS011;551;48.524;9.056;2023-05-07T08:12:27;4.07;;;3.73;;
505;SDS011;551;48.524;9.056;2023-05-07T08:14:52;3.90;;;3.60;;
505;SDS011;551;48.524;9.056;2023-05-07T08:17:18;4.83;;;3.97;;
505;SDS011;551;48.524;9.056;2023-05-07T08:19:44;5.60;;;3.80;;
505;SDS011;551;48.524;9.056;2023-05-07T08:22:09;4.43;;;4.03;;
505;SDS011;551;48.524;9.056;2023-05-07T08:24:36;4.40;;;4.00;;
505;SDS011;551;48.524;9.056;2023-05-07T08:27:01;9.80;;;4.40;;
505;SDS011;551;48.524;9.056;2023-05-07T08:29:27;3.63;;;3.33;;
505;SDS011;551;48.524;9.056;2023-05-07T08:31:52;7.83;;;3.73;;
505;SDS011;551;48.524;9.056;2023-05-07T08:34:18;8.57;;;3.70;;
505;SDS011;551;48.524;9.056;2023-05-07T08:36:44;4.53;;;3.40;;
505;SDS011;551;48.524;9.056;2023-05-07T08:39:13;4.10;;;3.70;;
505;SDS011;551;48.524;9.056;2023-05-07T08:41:39;4.03;;;3.73;;
505;SDS011;551;48.524;9.056;2023-05-07T08:44:06;3.47;;;3.17;;
505;SDS011;551;48.524;9.056;2023-05-07T08:46:36;5.07;;;3.53;;
505;SDS011;551;48.524;9.056;2023-05-07T08:49:02;3.63;;;3.40;;
505;SDS011;551;48.524;9.056;2023-05-07T08:51:28;5.53;;;3.30;;
505;SDS011;551;48.524;9.056;2023-05-07T08:53:53;3.90;;;3.60;;
505;SDS011;551;48.524;9.056;2023-05-07T08:56:19;3.87;;;3.37;;
505;SDS011;551;48.524;9.056;2023-05-07T08:58:45;3.20;;;3.00;;
505;SDS011;551;48.524;9.056;2023-05-07T09:01:14;3.47;;;3.27;;
505;SDS011;551;48.524;9.056;2023-05-07T09:03:42;4.50;;;4.13;;
505;SDS011;551;48.524;9.056;2023-05-07T09:06:10;3.73;;;3.43;;
505;SDS011;551;48.524;9.056;2023-05-07T09:08:36;4.40;;;3.87;;
505;SDS011;551;48.524;9.056;2023-05-07T09:11:02;3.07;;;2.87;;
505;SDS011;551;48.524;9.056;2023-05-07T09:13:28;4.43;;;3.60;;
505;SDS011;551;48.524;9.056;2023-05-07T09:15:54;3.50;;;3.07;;
505;SDS011;551;48.524;9.056;2023-05-07T09:18:20;3.73;;;3.37;;
505;SDS011;551;48.524;9.056;2023-05-07T09:20:45;3.87;;;3.53;;
505;SDS011;551;48.524;9.056;2023-05-07T09:23:11;5.57;;;2.90;;
505;SDS011;551;48.524;9.056;2023-05-07T09:25:36;3.47;;;3.17;;
505;SDS011;551;48.524;9.056;2023-05-07T09:28:03;3.07;;;2.87;;
505;SDS011;551;48.524;9.056;2023-05-07T09:30:30;4.20;;;3.80;;
505;SDS011;551;48.524;9.056;2023-05-07T09:32:56;3.70;;;3.40;;
505;SDS011;551;48.524;9.056;2023-05-07T09:35:24;3.00;;;2.80;;
505;SDS011;551;48.524;9.056;2023-05-07T09:37:52;3.37;;;3.17;;
505;SDS011;551;48.524;9.056;2023-05-07T09:40:24;3.33;;;3.13;;
505;SDS011;551;48.524;9.056;2023-05-07T09:42:54;4.33;;;4.03;;
505;SDS011;551;48.524;9.056;2023-05-07T09:45:29;3.93;;;3.60;;
505;SDS011;551;48.524;9.056;2023-05-07T09:47:55;3.57;;;3.33;;
505;SDS011;551;48.524;9.056;2023-05-07T09:50:25;3.37;;;3.10;;
505;SDS011;551;48.524;9.056;2023-05-07T09:52:57;3.70;;;3.40;;
505;SDS011;551;48.524;9.056;2023-05-07T09:55:23;3.20;;;2.90;;
505;SDS011;551;48.524;9.056;2023-05-07T09:57:50;3.30;;;3.07;;
505;SDS011;551;48.524;9.056;2023-05-07T10:00:18;3.80;;;3.60;;
505;SDS011;551;48.524;9.056;2023-05-07T10:02:48;3.33;;;3.10;;
505;SDS011;551;48.524;9.056;2023-05-07T10:05:17;3.50;;;3.30;;
505;SDS011;551;48.524;9.056;2023-05-07T10:07:44;3.40;;;3.10;;
505;SDS011;551;48.524;9.056;2023-05-07T10:10:10;10.30;;;3.47;;
505;SDS011;551;48.524;9.056;2023-05-07T10:12:36;3.20;;;3.00;;
505;SDS011;551;48.524;9.056;2023-05-07T10:15:10;4.40;;;3.00;;
505;SDS011;551;48.524;9.056;2023-05-07T10:17:39;3.10;;;2.80;;
505;SDS011;551;48.524;9.056;2023-05-07T10:20:05;3.10;;;3.00;;
505;SDS011;551;48.524;9.056;2023-05-07T10:22:33;3.20;;;3.00;;
505;SDS011;551;48.524;9.056;2023-05-07T10:25:06;3.40;;;3.20;;
505;SDS011;551;48.524;9.056;2023-05-07T10:27:43;3.60;;;3.30;;
505;SDS011;551;48.524;9.056;2023-05-07T10:30:17;3.33;;;3.13;;
505;SDS011;551;48.524;9.056;2023-05-07T10:32:53;3.50;;;2.70;;
505;SDS011;551;48.524;9.056;2023-05-07T10:35:23;2.90;;;2.70;;
505;SDS011;551;48.524;9.056;2023-05-07T10:37:51;3.13;;;2.93;;
505;SDS011;551;48.524;9.056;2023-05-07T10:40:17;3.03;;;2.70;;
505;SDS011;551;48.524;9.056;2023-05-07T10:45:26;3.53;;;3.00;;
505;SDS011;551;48.524;9.056;2023-05-07T10:48:11;3.10;;;2.93;;
505;SDS011;551;48.524;9.056;2023-05-07T10:50:39;2.90;;;2.70;;
505;SDS011;551;48.524;9.056;2023-05-07T10:55:43;2.77;;;2.67;;
505;SDS011;551;48.524;9.056;2023-05-07T10:58:22;3.63;;;2.80;;
505;SDS011;551;48.524;9.056;2023-05-07T11:00:58;2.80;;;2.60;;
505;SDS011;551;48.524;9.056;2023-05-07T11:03:27;3.10;;;2.53;;
505;SDS011;551;48.524;9.056;2023-05-07T11:11:33;3.10;;;2.83;;
505;SDS011;551;48.524;9.056;2023-05-07T11:17:05;3.37;;;3.13;;
505;SDS011;551;48.524;9.056;2023-05-07T11:19:48;3.50;;;3.30;;
505;SDS011;551;48.524;9.056;2023-05-07T11:22:50;3.80;;;3.00;;
505;SDS011;551;48.524;9.056;2023-05-07T11:25:09;3.20;;;2.90;;
505;SDS011;551;48.524;9.056;2023-05-07T11:27:35;2.90;;;2.70;;
505;SDS011;551;48.524;9.056;2023-05-07T11:30:01;2.77;;;2.57;;
505;SDS011;551;48.524;9.056;2023-05-07T11:32:27;3.50;;;2.77;;
505;SDS011;551;48.524;9.056;2023-05-07T11:34:54;2.77;;;2.50;;
505;SDS011;551;48.524;9.056;2023-05-07T11:37:21;2.60;;;2.40;;
505;SDS011;551;48.524;9.056;2023-05-07T11:39:48;2.67;;;2.47;;
505;SDS011;551;48.524;9.056;2023-05-07T11:44:56;2.60;;;2.40;;
505;SDS011;551;48.524;9.056;2023-05-07T11:47:22;4.23;;;2.60;;
505;SDS011;551;48.524;9.056;2023-05-07T11:49:48;2.97;;;2.77;;
505;SDS011;551;48.524;9.056;2023-05-07T11:52:16;2.90;;;2.80;;
505;SDS011;551;48.524;9.056;2023-05-07T11:54:50;2.57;;;2.37;;
505;SDS011;551;48.524;9.056;2023-05-07T11:57:16;2.60;;;2.40;;
505;SDS011;551;48.524;9.056;2023-05-07T11:59:42;3.43;;;3.23;;
505;SDS011;551;48.524;9.056;2023-05-07T12:02:13;6.73;;;3.30;;
505;SDS011;551;48.524;9.056;2023-05-07T12:04:40;4.87;;;2.90;;
505;SDS011;551;48.524;9.056;2023-05-07T12:07:10;3.00;;;2.80;;
505;SDS011;551;48.524;9.056;2023-05-07T12:09:40;2.90;;;2.60;;
505;SDS011;551;48.524;9.056;2023-05-07T12:12:06;3.10;;;2.90;;
505;SDS011;551;48.524;9.056;2023-05-07T12:14:32;2.80;;;2.60;;
505;SDS011;551;48.524;9.056;2023-05-07T12:16:58;3.03;;;2.53;;
505;SDS011;551;48.524;9.056;2023-05-07T12:19:27;4.33;;;2.80;;
505;SDS011;551;48.524;9.056;2023-05-07T12:21:54;4.27;;;2.70;;
505;SDS011;551;48.524;9.056;2023-05-07T12:24:21;2.60;;;2.50;;
505;SDS011;551;48.524;9.056;2023-05-07T12:26:46;4.07;;;2.90;;
505;SDS011;551;48.524;9.056;2023-05-07T12:29:13;4.10;;;2.60;;
505;SDS011;551;48.524;9.056;2023-05-07T12:31:41;3.43;;;3.17;;
505;SDS011;551;48.524;9.056;2023-05-07T12:34:06;3.00;;;2.80;;
505;SDS011;551;48.524;9.056;2023-05-07T12:36:38;3.93;;;3.40;;
505;SDS011;551;48.524;9.056;2023-05-07T12:39:05;5.33;;;3.77;;
505;SDS011;551;48.524;9.056;2023-05-07T12:41:35;4.17;;;3.87;;
505;SDS011;551;48.524;9.056;2023-05-07T12:44:23;4.83;;;3.33;;
505;SDS011;551;48.524;9.056;2023-05-07T12:46:49;3.40;;;3.10;;
505;SDS011;551;48.524;9.056;2023-05-07T12:49:15;5.43;;;3.70;;
505;SDS011;551;48.524;9.056;2023-05-07T12:51:42;3.87;;;3.00;;
505;SDS011;551;48.524;9.056;2023-05-07T12:54:08;5.77;;;3.23;;
505;SDS011;551;48.524;9.056;2023-05-07T12:56:37;4.03;;;3.13;;
505;SDS011;551;48.524;9.056;2023-05-07T12:59:03;3.10;;;2.80;;
505;SDS011;551;48.524;9.056;2023-05-07T13:01:29;3.43;;;3.13;;
505;SDS011;551;48.524;9.056;2023-05-07T13:04:01;4.23;;;2.93;;
505;SDS011;551;48.524;9.056;2023-05-07T13:06:29;5.03;;;3.23;;
505;SDS011;551;48.524;9.056;2023-05-07T13:08:55;8.57;;;4.33;;
505;SDS011;551;48.524;9.056;2023-05-07T13:11:22;7.77;;;4.47;;
505;SDS011;551;48.524;9.056;2023-05-07T13:13:48;6.67;;;4.60;;
505;SDS011;551;48.524;9.056;2023-05-07T13:16:13;7.03;;;4.43;;
505;SDS011;551;48.524;9.056;2023-05-07T13:18:39;15.47;;;6.63;;
505;SDS011;551;48.524;9.056;2023-05-07T13:21:05;13.93;;;5.90;;
505;SDS011;551;48.524;9.056;2023-05-07T13:23:31;7.73;;;4.20;;
505;SDS011;551;48.524;9.056;2023-05-07T13:25:56;8.73;;;5.47;;
505;SDS011;551;48.524;9.056;2023-05-07T13:28:22;10.87;;;5.33;;
505;SDS011;551;48.524;9.056;2023-05-07T13:30:49;6.07;;;4.13;;
505;SDS011;551;48.524;9.056;2023-05-07T13:33:16;5.50;;;4.20;;
505;SDS011;551;48.524;9.056;2023-05-07T13:35:42;5.23;;;4.60;;
505;SDS011;551;48.524;9.056;2023-05-07T13:38:08;5.23;;;4.50;;
505;SDS011;551;48.524;9.056;2023-05-07T13:40:33;12.73;;;4.70;;
505;SDS011;551;48.524;9.056;2023-05-07T13:42:59;4.90;;;4.10;;
505;SDS011;551;48.524;9.056;2023-05-07T13:45:28;5.07;;;4.47;;
505;SDS011;551;48.524;9.056;2023-05-07T13:47:54;6.53;;;5.10;;
505;SDS011;551;48.524;9.056;2023-05-07T13:50:20;6.20;;;4.57;;
505;SDS011;551;48.524;9.056;2023-05-07T13:52:46;6.50;;;4.93;;
505;SDS011;551;48.524;9.056;2023-05-07T13:55:16;5.93;;;4.40;;
505;SDS011;551;48.524;9.056;2023-05-07T13:57:42;11.90;;;4.33;;
505;SDS011;551;48.524;9.056;2023-05-07T14:00:08;7.77;;;5.33;;
505;SDS011;551;48.524;9.056;2023-05-07T14:02:34;14.70;;;5.13;;
505;SDS011;551;48.524;9.056;2023-05-07T14:04:59;8.63;;;4.50;;
505;SDS011;551;48.524;9.056;2023-05-07T14:07:25;9.67;;;5.10;;
505;SDS011;551;48.524;9.056;2023-05-07T14:09:51;8.20;;;5.53;;
505;SDS011;551;48.524;9.056;2023-05-07T14:12:16;10.93;;;4.90;;
505;SDS011;551;48.524;9.056;2023-05-07T14:14:42;9.87;;;4.57;;
505;SDS011;551;48.524;9.056;2023-05-07T14:17:07;7.00;;;4.97;;
505;SDS011;551;48.524;9.056;2023-05-07T14:19:33;9.10;;;4.73;;
505;SDS011;551;48.524;9.056;2023-05-07T14:21:59;9.00;;;4.83;;
505;SDS011;551;48.524;9.056;2023-05-07T14:24:24;6.40;;;4.43;;
505;SDS011;551;48.524;9.056;2023-05-07T14:26:50;10.13;;;4.80;;
505;SDS011;551;48.524;9.056;2023-05-07T14:29:16;6.10;;;4.77;;
505;SDS011;551;48.524;9.056;2023-05-07T14:31:43;5.10;;;4.63;;
505;SDS011;551;48.524;9.056;2023-05-07T14:34:10;13.40;;;5.47;;
505;SDS011;551;48.524;9.056;2023-05-07T14:36:35;9.87;;;4.70;;
505;SDS011;551;48.524;9.056;2023-05-07T14:39:01;9.90;;;3.90;;
505;SDS011;551;48.524;9.056;2023-05-07T14:41:27;6.43;;;5.03;;
505;SDS011;551;48.524;9.056;2023-05-07T14:43:52;5.40;;;4.00;;
505;SDS011;551;48.524;9.056;2023-05-07T14:46:18;6.27;;;4.20;;
505;SDS011;551;48.524;9.056;2023-05-07T14:48:47;8.53;;;4.97;;
505;SDS011;551;48.524;9.056;2023-05-07T14:51:13;6.73;;;5.10;;
505;SDS011;551;48.524;9.056;2023-05-07T14:53:40;3.93;;;3.53;;
505;SDS011;551;48.524;9.056;2023-05-07T14:56:06;6.57;;;4.90;;
505;SDS011;551;48.524;9.056;2023-05-07T14:58:32;8.53;;;3.90;;
505;SDS011;551;48.524;9.056;2023-05-07T15:00:58;5.37;;;3.43;;
505;SDS011;551;48.524;9.056;2023-05-07T15:03:24;4.10;;;3.37;;
505;SDS011;551;48.524;9.056;2023-05-07T15:05:50;9.73;;;3.40;;
505;SDS011;551;48.524;9.056;2023-05-07T15:08:16;6.60;;;3.00;;
505;SDS011;551;48.524;9.056;2023-05-07T15:10:42;3.50;;;3.20;;
505;SDS011;551;48.524;9.056;2023-05-07T15:13:08;3.90;;;2.97;;
505;SDS011;551;48.524;9.056;2023-05-07T15:15:35;5.43;;;4.00;;
505;SDS011;551;48.524;9.056;2023-05-07T15:18:01;5.57;;;3.47;;
505;SDS011;551;48.524;9.056;2023-05-07T15:20:27;6.07;;;3.53;;
505;SDS011;551;48.524;9.056;2023-05-07T15:22:53;3.90;;;3.50;;
505;SDS011;551;48.524;9.056;2023-05-07T15:25:18;5.00;;;3.53;;
505;SDS011;551;48.524;9.056;2023-05-07T15:27:44;4.83;;;4.33;;
505;SDS011;551;48.524;9.056;2023-05-07T15:30:10;4.00;;;3.60;;
505;SDS011;551;48.524;9.056;2023-05-07T15:32:37;6.27;;;3.93;;
505;SDS011;551;48.524;9.056;2023-05-07T15:35:03;5.10;;;3.70;;
505;SDS011;551;48.524;9.056;2023-05-07T15:37:32;5.30;;;4.37;;
505;SDS011;551;48.524;9.056;2023-05-07T15:39:58;7.60;;;4.17;;
505;SDS011;551;48.524;9.056;2023-05-07T15:42:24;7.10;;;3.87;;
505;SDS011;551;48.524;9.056;2023-05-07T15:44:50;6.93;;;4.00;;
505;SDS011;551;48.524;9.056;2023-05-07T15:47:15;4.07;;;3.77;;
505;SDS011;551;48.524;9.056;2023-05-07T15:49:41;5.73;;;4.30;;
505;SDS011;551;48.524;9.056;2023-05-07T15:52:07;6.33;;;3.50;;
505;SDS011;551;48.524;9.056;2023-05-07T15:54:35;4.00;;;3.70;;
505;SDS011;551;48.524;9.056;2023-05-07T15:57:02;4.67;;;3.87;;